sensor_id;sensor_type;location;lat;lon;timestamp;pressure;altitude;pressure_sealevel;temperature;humidity
9538;BME280;4807;48.024;11.726;2023-01-26T00:02:20;95315.63;;;-0.56;82.33
9538;BME280;4807;48.024;11.726;2023-01-26T00:05:29;95318.50;;;-0.59;81.51
9538;BME280;4807;48.024;11.726;2023-01-26T00:08:40;95313.16;;;-0.57;81.59
9538;BME280;4807;48.024;11.726;2023-01-26T00:11:49;95310.19;;;-0.64;81.78
9538;BME280;4807;48.024;11.726;2023-01-26T00:14:57;95307.09;;;-0.58;82.45
9538;BME280;4807;48.024;11.726;2023-01-26T00:18:07;95301.59;;;-0.55;82.11
9538;BME280;4807;48.024;11.726;2023-01-26T00:21:18;95298.03;;;-0.54;81.79
9538;BME280;4807;48.024;11.726;2023-01-26T00:24:30;95296.84;;;-0.50;82.31
9538;BME280;4807;48.024;11.726;2023-01-26T00:27:38;95297.03;;;-0.42;82.25
9538;BME280;4807;48.024;11.726;2023-01-26T00:30:46;95289.47;;;-0.56;81.06
9538;BME280;4807;48.024;11.726;2023-01-26T00:33:56;95283.78;;;-0.61;81.44
9538;BME280;4807;48.024;11.726;2023-01-26T00:37:04;95291.13;;;-0.55;82.27
9538;BME280;4807;48.024;11.726;2023-01-26T00:40:14;95292.56;;;-0.51;82.07
9538;BME280;4807;48.024;11.726;2023-01-26T00:43:27;95276.88;;;-0.51;82.22
9538;BME280;4807;48.024;11.726;2023-01-26T00:46:35;95283.50;;;-0.47;81.61
9538;BME280;4807;48.024;11.726;2023-01-26T00:49:46;95279.00;;;-0.56;80.69
9538;BME280;4807;48.024;11.726;2023-01-26T00:52:54;95273.78;;;-0.56;81.50
9538;BME280;4807;48.024;11.726;2023-01-26T00:56:07;95275.13;;;-0.61;82.06
9538;BME280;4807;48.024;11.726;2023-01-26T00:59:15;95277.38;;;-0.57;82.13
9538;BME280;4807;48.024;11.726;2023-01-26T01:02:25;95271.38;;;-0.48;81.64
9538;BME280;4807;48.024;11.726;2023-01-26T01:05:34;95273.63;;;-0.43;81.71
9538;BME280;4807;48.024;11.726;2023-01-26T01:08:42;95267.31;;;-0.41;80.41
9538;BME280;4807;48.024;11.726;2023-01-26T01:11:52;95271.25;;;-0.46;80.37
9538;BME280;4807;48.024;11.726;2023-01-26T01:15:00;95267.66;;;-0.66;81.41
9538;BME280;4807;48.024;11.726;2023-01-26T01:18:08;95273.22;;;-0.59;81.81
9538;BME280;4807;48.024;11.726;2023-01-26T01:21:17;95264.34;;;-0.68;81.26
9538;BME280;4807;48.024;11.726;2023-01-26T01:24:25;95272.38;;;-0.60;81.34
9538;BME280;4807;48.024;11.726;2023-01-26T01:27:35;95271.69;;;-0.62;81.68
9538;BME280;4807;48.024;11.726;2023-01-26T01:30:44;95272.94;;;-0.56;81.41
9538;BME280;4807;48.024;11.726;2023-01-26T01:33:53;95272.94;;;-0.56;81.98
9538;BME280;4807;48.024;11.726;2023-01-26T01:37:02;95265.19;;;-0.47;81.18
9538;BME280;4807;48.024;11.726;2023-01-26T01:40:12;95270.28;;;-0.45;81.35
9538;BME280;4807;48.024;11.726;2023-01-26T01:43:24;95263.31;;;-0.56;81.19
9538;BME280;4807;48.024;11.726;2023-01-26T01:46:35;95260.34;;;-0.51;81.33
9538;BME280;4807;48.024;11.726;2023-01-26T01:49:48;95258.75;;;-0.43;80.77
9538;BME280;4807;48.024;11.726;2023-01-26T01:52:58;95253.44;;;-0.73;81.38
9538;BME280;4807;48.024;11.726;2023-01-26T01:56:12;95259.81;;;-0.66;80.52
9538;BME280;4807;48.024;11.726;2023-01-26T01:59:26;95259.75;;;-0.55;81.25
9538;BME280;4807;48.024;11.726;2023-01-26T02:02:37;95257.13;;;-0.55;81.00
9538;BME280;4807;48.024;11.726;2023-01-26T02:05:55;95255.44;;;-0.45;80.66
9538;BME280;4807;48.024;11.726;2023-01-26T02:09:07;95253.13;;;-0.59;81.64
9538;BME280;4807;48.024;11.726;2023-01-26T02:12:38;95250.25;;;-0.56;81.20
9538;BME280;4807;48.024;11.726;2023-01-26T02:15:50;95255.06;;;-0.72;81.22
9538;BME280;4807;48.024;11.726;2023-01-26T02:18:58;95243.94;;;-0.74;81.44
9538;BME280;4807;48.024;11.726;2023-01-26T02:22:16;95242.91;;;-0.62;81.01
9538;BME280;4807;48.024;11.726;2023-01-26T02:25:39;95243.75;;;-0.61;81.18
9538;BME280;4807;48.024;11.726;2023-01-26T02:28:53;95238.06;;;-0.46;80.25
9538;BME280;4807;48.024;11.726;2023-01-26T02:32:02;95232.41;;;-0.51;80.10
9538;BME280;4807;48.024;11.726;2023-01-26T02:35:10;95229.06;;;-0.53;80.36
9538;BME280;4807;48.024;11.726;2023-01-26T02:38:21;95225.63;;;-0.53;80.75
9538;BME280;4807;48.024;11.726;2023-01-26T02:41:30;95216.75;;;-0.62;81.05
9538;BME280;4807;48.024;11.726;2023-01-26T02:44:57;95209.13;;;-0.54;81.62
9538;BME280;4807;48.024;11.726;2023-01-26T02:48:07;95208.16;;;-0.53;80.98
9538;BME280;4807;48.024;11.726;2023-01-26T02:51:15;95209.19;;;-0.44;80.38
9538;BME280;4807;48.024;11.726;2023-01-26T02:54:23;95209.00;;;-0.52;80.31
9538;BME280;4807;48.024;11.726;2023-01-26T02:57:50;95203.25;;;-0.67;81.92
9538;BME280;4807;48.024;11.726;2023-01-26T03:01:01;95204.53;;;-0.93;82.26
9538;BME280;4807;48.024;11.726;2023-01-26T03:04:10;95199.75;;;-0.88;81.15
9538;BME280;4807;48.024;11.726;2023-01-26T03:07:18;95185.19;;;-0.91;81.11
9538;BME280;4807;48.024;11.726;2023-01-26T03:10:27;95184.59;;;-0.94;82.77
9538;BME280;4807;48.024;11.726;2023-01-26T03:13:35;95179.38;;;-0.94;81.59
9538;BME280;4807;48.024;11.726;2023-01-26T03:16:45;95181.66;;;-0.80;81.99
9538;BME280;4807;48.024;11.726;2023-01-26T03:19:53;95185.06;;;-0.89;82.41
9538;BME280;4807;48.024;11.726;2023-01-26T03:23:20;95184.78;;;-0.86;82.50
9538;BME280;4807;48.024;11.726;2023-01-26T03:26:46;95179.88;;;-1.00;82.66
9538;BME280;4807;48.024;11.726;2023-01-26T03:30:15;95172.16;;;-1.34;83.53
9538;BME280;4807;48.024;11.726;2023-01-26T03:33:27;95182.78;;;-1.14;82.54
9538;BME280;4807;48.024;11.726;2023-01-26T03:36:35;95181.16;;;-0.95;82.44
9538;BME280;4807;48.024;11.726;2023-01-26T03:39:49;95172.56;;;-0.86;81.90
9538;BME280;4807;48.024;11.726;2023-01-26T03:43:17;95168.13;;;-0.74;81.55
9538;BME280;4807;48.024;11.726;2023-01-26T03:46:43;95173.25;;;-0.84;81.91
9538;BME280;4807;48.024;11.726;2023-01-26T03:50:12;95174.09;;;-0.83;81.57
9538;BME280;4807;48.024;11.726;2023-01-26T03:53:38;95168.75;;;-0.82;81.38
9538;BME280;4807;48.024;11.726;2023-01-26T03:57:07;95170.53;;;-0.82;81.81
9538;BME280;4807;48.024;11.726;2023-01-26T04:00:17;95166.75;;;-0.89;82.04
9538;BME280;4807;48.024;11.726;2023-01-26T04:03:25;95171.56;;;-0.73;80.78
9538;BME280;4807;48.024;11.726;2023-01-26T04:06:52;95167.41;;;-0.76;81.16
9538;BME280;4807;48.024;11.726;2023-01-26T04:10:25;95165.50;;;-0.74;80.13
9538;BME280;4807;48.024;11.726;2023-01-26T04:13:34;95167.84;;;-0.71;80.69
9538;BME280;4807;48.024;11.726;2023-01-26T04:17:08;95165.34;;;-0.72;80.90
9538;BME280;4807;48.024;11.726;2023-01-26T04:20:35;95156.31;;;-0.68;80.03
9538;BME280;4807;48.024;11.726;2023-01-26T04:24:05;95155.28;;;-0.77;80.82
9538;BME280;4807;48.024;11.726;2023-01-26T04:27:16;95164.59;;;-0.84;80.21
9538;BME280;4807;48.024;11.726;2023-01-26T04:30:25;95157.94;;;-0.88;81.53
9538;BME280;4807;48.024;11.726;2023-01-26T04:33:33;95148.72;;;-0.92;81.75
9538;BME280;4807;48.024;11.726;2023-01-26T04:36:42;95155.09;;;-0.85;81.54
9538;BME280;4807;48.024;11.726;2023-01-26T04:39:53;95158.22;;;-0.91;80.52
9538;BME280;4807;48.024;11.726;2023-01-26T04:43:02;95152.31;;;-1.04;80.62
9538;BME280;4807;48.024;11.726;2023-01-26T04:46:10;95154.88;;;-0.93;80.55
9538;BME280;4807;48.024;11.726;2023-01-26T04:49:20;95153.09;;;-1.13;81.44
9538;BME280;4807;48.024;11.726;2023-01-26T04:52:28;95136.19;;;-1.30;81.86
9538;BME280;4807;48.024;11.726;2023-01-26T04:55:38;95146.25;;;-1.26;81.90
9538;BME280;4807;48.024;11.726;2023-01-26T04:58:46;95155.13;;;-0.96;81.04
9538;BME280;4807;48.024;11.726;2023-01-26T05:01:55;95149.16;;;-0.87;80.17
9538;BME280;4807;48.024;11.726;2023-01-26T05:05:04;95151.09;;;-0.89;79.91
9538;BME280;4807;48.024;11.726;2023-01-26T05:08:12;95145.06;;;-0.80;80.47
9538;BME280;4807;48.024;11.726;2023-01-26T05:11:22;95149.16;;;-0.87;79.99
9538;BME280;4807;48.024;11.726;2023-01-26T05:14:58;95150.28;;;-0.80;80.12
9538;BME280;4807;48.024;11.726;2023-01-26T05:18:22;95158.84;;;-0.78;79.98
9538;BME280;4807;48.024;11.726;2023-01-26T05:21:40;95158.47;;;-0.94;80.56
9538;BME280;4807;48.024;11.726;2023-01-26T05:24:48;95151.13;;;-1.00;80.29
9538;BME280;4807;48.024;11.726;2023-01-26T05:28:11;95145.84;;;-0.89;79.60
9538;BME280;4807;48.024;11.726;2023-01-26T05:31:20;95150.69;;;-0.85;79.19
9538;BME280;4807;48.024;11.726;2023-01-26T05:34:28;95142.44;;;-0.80;79.81
9538;BME280;4807;48.024;11.726;2023-01-26T05:37:36;95143.38;;;-0.91;79.20
9538;BME280;4807;48.024;11.726;2023-01-26T05:40:45;95144.44;;;-0.93;80.45
9538;BME280;4807;48.024;11.726;2023-01-26T05:43:55;95149.16;;;-0.87;80.29
9538;BME280;4807;48.024;11.726;2023-01-26T05:47:21;95156.03;;;-0.86;79.45
9538;BME280;4807;48.024;11.726;2023-01-26T05:50:30;95155.28;;;-0.98;80.48
9538;BME280;4807;48.024;11.726;2023-01-26T05:53:55;95157.75;;;-0.96;78.76
9538;BME280;4807;48.024;11.726;2023-01-26T05:57:04;95160.63;;;-0.99;80.35
9538;BME280;4807;48.024;11.726;2023-01-26T06:00:18;95158.13;;;-1.01;80.61
9538;BME280;4807;48.024;11.726;2023-01-26T06:03:35;95164.16;;;-0.89;80.49
9538;BME280;4807;48.024;11.726;2023-01-26T06:06:43;95160.56;;;-0.88;79.33
9538;BME280;4807;48.024;11.726;2023-01-26T06:10:04;95155.31;;;-0.88;79.56
9538;BME280;4807;48.024;11.726;2023-01-26T06:13:36;95146.81;;;-0.90;79.25
9538;BME280;4807;48.024;11.726;2023-01-26T06:17:00;95157.44;;;-1.03;79.48
9538;BME280;4807;48.024;11.726;2023-01-26T06:20:10;95160.88;;;-1.02;79.61
9538;BME280;4807;48.024;11.726;2023-01-26T06:23:23;95163.44;;;-0.91;77.92
9538;BME280;4807;48.024;11.726;2023-01-26T06:26:34;95160.13;;;-0.93;78.41
9538;BME280;4807;48.024;11.726;2023-01-26T06:29:43;95162.34;;;-1.21;79.68
9538;BME280;4807;48.024;11.726;2023-01-26T06:32:53;95165.53;;;-1.06;77.86
9538;BME280;4807;48.024;11.726;2023-01-26T06:36:05;95168.31;;;-1.19;78.95
9538;BME280;4807;48.024;11.726;2023-01-26T06:39:14;95165.38;;;-1.04;77.46
9538;BME280;4807;48.024;11.726;2023-01-26T06:42:24;95160.72;;;-1.22;79.17
9538;BME280;4807;48.024;11.726;2023-01-26T06:45:32;95159.91;;;-1.22;79.78
9538;BME280;4807;48.024;11.726;2023-01-26T06:48:42;95163.56;;;-1.13;78.46
9538;BME280;4807;48.024;11.726;2023-01-26T06:51:58;95159.53;;;-0.97;79.09
9538;BME280;4807;48.024;11.726;2023-01-26T06:55:38;95145.69;;;-1.08;79.32
9538;BME280;4807;48.024;11.726;2023-01-26T06:59:06;95147.09;;;-1.04;77.88
9538;BME280;4807;48.024;11.726;2023-01-26T07:02:35;95146.53;;;-1.08;75.08
9538;BME280;4807;48.024;11.726;2023-01-26T07:05:45;95138.59;;;-1.18;76.60
9538;BME280;4807;48.024;11.726;2023-01-26T07:08:53;95148.09;;;-1.17;77.78
9538;BME280;4807;48.024;11.726;2023-01-26T07:12:01;95140.78;;;-1.02;78.08
9538;BME280;4807;48.024;11.726;2023-01-26T07:15:11;95142.53;;;-0.91;78.99
9538;BME280;4807;48.024;11.726;2023-01-26T07:18:20;95141.63;;;-0.81;77.56
9538;BME280;4807;48.024;11.726;2023-01-26T07:21:29;95155.28;;;-0.77;77.99
9538;BME280;4807;48.024;11.726;2023-01-26T07:24:38;95143.81;;;-0.65;77.79
9538;BME280;4807;48.024;11.726;2023-01-26T07:27:46;95148.78;;;-0.62;77.06
9538;BME280;4807;48.024;11.726;2023-01-26T07:30:57;95152.47;;;-0.85;74.08
9538;BME280;4807;48.024;11.726;2023-01-26T07:34:05;95141.19;;;-1.06;75.70
9538;BME280;4807;48.024;11.726;2023-01-26T07:37:15;95144.25;;;-1.01;75.97
9538;BME280;4807;48.024;11.726;2023-01-26T07:40:24;95137.56;;;-0.94;75.58
9538;BME280;4807;48.024;11.726;2023-01-26T07:43:33;95137.66;;;-0.96;74.70
9538;BME280;4807;48.024;11.726;2023-01-26T07:46:42;95141.31;;;-0.87;76.06
9538;BME280;4807;48.024;11.726;2023-01-26T07:49:51;95139.16;;;-0.82;75.81
9538;BME280;4807;48.024;11.726;2023-01-26T07:53:01;95137.03;;;-0.88;73.41
9538;BME280;4807;48.024;11.726;2023-01-26T07:56:11;95133.59;;;-1.09;74.05
9538;BME280;4807;48.024;11.726;2023-01-26T07:59:20;95130.97;;;-1.09;75.00
9538;BME280;4807;48.024;11.726;2023-01-26T08:02:28;95142.97;;;-1.07;75.62
9538;BME280;4807;48.024;11.726;2023-01-26T08:05:37;95140.06;;;-1.25;75.92
9538;BME280;4807;48.024;11.726;2023-01-26T08:08:48;95145.41;;;-1.26;76.02
9538;BME280;4807;48.024;11.726;2023-01-26T08:11:59;95141.84;;;-1.25;76.36
9538;BME280;4807;48.024;11.726;2023-01-26T08:15:08;95127.50;;;-1.31;76.33
9538;BME280;4807;48.024;11.726;2023-01-26T08:18:17;95127.44;;;-1.20;76.90
9538;BME280;4807;48.024;11.726;2023-01-26T08:21:26;95120.00;;;-1.24;77.78
9538;BME280;4807;48.024;11.726;2023-01-26T08:24:35;95122.63;;;-1.03;77.25
9538;BME280;4807;48.024;11.726;2023-01-26T08:27:44;95122.38;;;-0.80;76.64
9538;BME280;4807;48.024;11.726;2023-01-26T08:30:52;95115.50;;;-0.60;76.91
9538;BME280;4807;48.024;11.726;2023-01-26T08:34:01;95121.59;;;-0.50;76.15
9538;BME280;4807;48.024;11.726;2023-01-26T08:37:10;95116.16;;;-0.37;73.85
9538;BME280;4807;48.024;11.726;2023-01-26T08:40:20;95113.97;;;-0.32;73.47
9538;BME280;4807;48.024;11.726;2023-01-26T08:43:29;95116.03;;;-0.56;74.64
9538;BME280;4807;48.024;11.726;2023-01-26T08:46:37;95107.09;;;-0.33;75.11
9538;BME280;4807;48.024;11.726;2023-01-26T08:49:45;95111.13;;;-0.19;72.90
9538;BME280;4807;48.024;11.726;2023-01-26T08:52:55;95117.66;;;-0.04;73.29
9538;BME280;4807;48.024;11.726;2023-01-26T08:56:08;95113.59;;;-0.48;73.02
9538;BME280;4807;48.024;11.726;2023-01-26T08:59:17;95112.47;;;-0.55;74.35
9538;BME280;4807;48.024;11.726;2023-01-26T09:02:25;95108.78;;;-0.22;74.18
9538;BME280;4807;48.024;11.726;2023-01-26T09:05:35;95112.44;;;-0.04;73.91
9538;BME280;4807;48.024;11.726;2023-01-26T09:08:44;95106.44;;;0.15;71.80
9538;BME280;4807;48.024;11.726;2023-01-26T09:11:55;95108.94;;;-0.14;71.55
9538;BME280;4807;48.024;11.726;2023-01-26T09:15:06;95102.91;;;-0.05;72.23
9538;BME280;4807;48.024;11.726;2023-01-26T09:18:14;95105.56;;;0.05;72.18
9538;BME280;4807;48.024;11.726;2023-01-26T09:21:25;95106.47;;;0.24;73.10
9538;BME280;4807;48.024;11.726;2023-01-26T09:24:33;95112.16;;;0.49;72.71
9538;BME280;4807;48.024;11.726;2023-01-26T09:27:43;95111.19;;;0.69;72.62
9538;BME280;4807;48.024;11.726;2023-01-26T09:30:51;95123.09;;;0.73;71.42
9538;BME280;4807;48.024;11.726;2023-01-26T09:34:00;95115.06;;;0.84;71.24
9538;BME280;4807;48.024;11.726;2023-01-26T09:37:08;95112.16;;;0.68;69.76
9538;BME280;4807;48.024;11.726;2023-01-26T09:40:22;95110.09;;;0.71;69.20
9538;BME280;4807;48.024;11.726;2023-01-26T09:43:39;95125.00;;;0.61;69.70
9538;BME280;4807;48.024;11.726;2023-01-26T09:47:04;95119.41;;;0.16;70.04
9538;BME280;4807;48.024;11.726;2023-01-26T09:50:21;95124.47;;;-0.22;71.96
9538;BME280;4807;48.024;11.726;2023-01-26T09:53:43;95130.28;;;-0.49;73.15
9538;BME280;4807;48.024;11.726;2023-01-26T09:56:54;95123.50;;;-0.52;74.04
9538;BME280;4807;48.024;11.726;2023-01-26T10:00:07;95118.69;;;-0.26;74.80
9538;BME280;4807;48.024;11.726;2023-01-26T10:03:25;95117.41;;;0.09;75.32
9538;BME280;4807;48.024;11.726;2023-01-26T10:06:37;95118.56;;;0.25;72.55
9538;BME280;4807;48.024;11.726;2023-01-26T10:09:49;95113.50;;;0.24;73.06
9538;BME280;4807;48.024;11.726;2023-01-26T10:12:59;95105.13;;;0.40;72.79
9538;BME280;4807;48.024;11.726;2023-01-26T10:16:12;95104.00;;;0.42;72.25
9538;BME280;4807;48.024;11.726;2023-01-26T10:19:32;95114.91;;;0.47;72.08
9538;BME280;4807;48.024;11.726;2023-01-26T10:22:44;95114.50;;;0.52;72.81
9538;BME280;4807;48.024;11.726;2023-01-26T10:25:55;95111.75;;;0.53;72.88
9538;BME280;4807;48.024;11.726;2023-01-26T10:29:12;95101.81;;;0.57;72.42
9538;BME280;4807;48.024;11.726;2023-01-26T10:32:23;95092.44;;;0.45;71.29
9538;BME280;4807;48.024;11.726;2023-01-26T10:35:32;95092.44;;;0.45;72.32
9538;BME280;4807;48.024;11.726;2023-01-26T10:38:44;95089.41;;;0.40;72.58
9538;BME280;4807;48.024;11.726;2023-01-26T10:41:57;95092.69;;;0.42;72.28
9538;BME280;4807;48.024;11.726;2023-01-26T10:45:24;95084.81;;;0.42;72.87
9538;BME280;4807;48.024;11.726;2023-01-26T10:48:34;95085.81;;;0.41;71.88
9538;BME280;4807;48.024;11.726;2023-01-26T10:51:45;95080.03;;;0.47;71.19
9538;BME280;4807;48.024;11.726;2023-01-26T10:55:19;95077.94;;;0.50;71.88
9538;BME280;4807;48.024;11.726;2023-01-26T10:58:46;95075.06;;;0.53;71.64
9538;BME280;4807;48.024;11.726;2023-01-26T11:01:58;95083.88;;;0.52;71.76
9538;BME280;4807;48.024;11.726;2023-01-26T11:05:20;95083.47;;;0.66;71.15
9538;BME280;4807;48.024;11.726;2023-01-26T11:08:33;95073.28;;;0.63;71.91
9538;BME280;4807;48.024;11.726;2023-01-26T11:11:54;95084.31;;;0.48;71.66
9538;BME280;4807;48.024;11.726;2023-01-26T11:15:05;95077.97;;;0.60;71.52
9538;BME280;4807;48.024;11.726;2023-01-26T11:18:39;95080.00;;;0.37;71.98
9538;BME280;4807;48.024;11.726;2023-01-26T11:21:57;95071.47;;;0.35;72.51
9538;BME280;4807;48.024;11.726;2023-01-26T11:25:20;95075.31;;;0.31;73.11
9538;BME280;4807;48.024;11.726;2023-01-26T11:28:46;95074.06;;;0.25;72.88
9538;BME280;4807;48.024;11.726;2023-01-26T11:32:05;95078.31;;;0.17;73.96
9538;BME280;4807;48.024;11.726;2023-01-26T11:35:38;95079.19;;;0.36;73.46
9538;BME280;4807;48.024;11.726;2023-01-26T11:39:04;95068.03;;;0.54;74.00
9538;BME280;4807;48.024;11.726;2023-01-26T11:42:25;95068.72;;;0.56;72.82
9538;BME280;4807;48.024;11.726;2023-01-26T11:45:53;95065.56;;;0.62;72.78
9538;BME280;4807;48.024;11.726;2023-01-26T11:49:22;95056.03;;;0.42;71.97
9538;BME280;4807;48.024;11.726;2023-01-26T11:52:47;95059.31;;;0.34;72.77
9538;BME280;4807;48.024;11.726;2023-01-26T11:56:14;95049.00;;;0.42;73.13
9538;BME280;4807;48.024;11.726;2023-01-26T11:59:30;95056.31;;;0.58;73.06
9538;BME280;4807;48.024;11.726;2023-01-26T12:02:48;95049.56;;;0.65;72.80
9538;BME280;4807;48.024;11.726;2023-01-26T12:06:04;95054.66;;;0.76;73.54
9538;BME280;4807;48.024;11.726;2023-01-26T12:09:20;95045.97;;;0.56;72.23
9538;BME280;4807;48.024;11.726;2023-01-26T12:12:39;95049.66;;;0.34;72.18
9538;BME280;4807;48.024;11.726;2023-01-26T12:15:57;95044.16;;;0.28;72.27
9538;BME280;4807;48.024;11.726;2023-01-26T12:19:31;95040.69;;;0.08;72.80
9538;BME280;4807;48.024;11.726;2023-01-26T12:22:49;95032.56;;;0.11;74.09
9538;BME280;4807;48.024;11.726;2023-01-26T12:26:07;95028.97;;;0.03;74.08
9538;BME280;4807;48.024;11.726;2023-01-26T12:29:24;95032.97;;;0.07;75.17
9538;BME280;4807;48.024;11.726;2023-01-26T12:32:35;95034.75;;;0.06;74.55
9538;BME280;4807;48.024;11.726;2023-01-26T12:36:01;95039.03;;;0.07;74.49
9538;BME280;4807;48.024;11.726;2023-01-26T12:39:15;95031.03;;;0.09;74.53
9538;BME280;4807;48.024;11.726;2023-01-26T12:42:40;95036.56;;;0.15;74.96
9538;BME280;4807;48.024;11.726;2023-01-26T12:45:55;95033.94;;;0.06;74.76
9538;BME280;4807;48.024;11.726;2023-01-26T12:49:13;95035.47;;;0.08;75.64
9538;BME280;4807;48.024;11.726;2023-01-26T12:52:29;95038.66;;;0.21;75.79
9538;BME280;4807;48.024;11.726;2023-01-26T12:55:45;95026.22;;;0.04;74.94
9538;BME280;4807;48.024;11.726;2023-01-26T12:58:57;95028.69;;;0.06;74.58
9538;BME280;4807;48.024;11.726;2023-01-26T13:02:25;95034.16;;;-0.07;74.74
9538;BME280;4807;48.024;11.726;2023-01-26T13:05:53;95030.84;;;-0.19;76.09
9538;BME280;4807;48.024;11.726;2023-01-26T13:09:18;95026.75;;;-0.12;75.93
9538;BME280;4807;48.024;11.726;2023-01-26T13:12:47;95026.75;;;-0.02;75.77
9538;BME280;4807;48.024;11.726;2023-01-26T13:16:31;95024.56;;;0.13;76.50
9538;BME280;4807;48.024;11.726;2023-01-26T13:19:53;95022.78;;;0.04;75.11
9538;BME280;4807;48.024;11.726;2023-01-26T13:23:40;95020.28;;;0.02;76.01
9538;BME280;4807;48.024;11.726;2023-01-26T13:26:50;95023.59;;;0.04;76.44
9538;BME280;4807;48.024;11.726;2023-01-26T13:29:59;95019.28;;;-0.07;75.15
9538;BME280;4807;48.024;11.726;2023-01-26T13:33:13;95019.28;;;-0.26;75.87
9538;BME280;4807;48.024;11.726;2023-01-26T13:36:28;95008.50;;;-0.23;76.97
9538;BME280;4807;48.024;11.726;2023-01-26T13:39:41;95017.03;;;-0.30;76.72
9538;BME280;4807;48.024;11.726;2023-01-26T13:42:59;95018.72;;;-0.20;77.36
9538;BME280;4807;48.024;11.726;2023-01-26T13:46:14;95026.13;;;-0.34;77.98
9538;BME280;4807;48.024;11.726;2023-01-26T13:49:27;95019.78;;;-0.32;77.80
9538;BME280;4807;48.024;11.726;2023-01-26T13:52:44;95023.22;;;-0.31;77.53
9538;BME280;4807;48.024;11.726;2023-01-26T13:55:57;95015.44;;;-0.12;78.02
9538;BME280;4807;48.024;11.726;2023-01-26T13:59:12;95021.63;;;-0.13;76.13
9538;BME280;4807;48.024;11.726;2023-01-26T14:02:24;95020.94;;;-0.15;76.99
9538;BME280;4807;48.024;11.726;2023-01-26T14:05:32;95018.41;;;-0.36;77.08
9538;BME280;4807;48.024;11.726;2023-01-26T14:08:50;95023.28;;;-0.12;77.39
9538;BME280;4807;48.024;11.726;2023-01-26T14:12:01;95016.53;;;-0.15;77.21
9538;BME280;4807;48.024;11.726;2023-01-26T14:15:21;95024.69;;;-0.08;76.94
9538;BME280;4807;48.024;11.726;2023-01-26T14:18:30;95019.63;;;0.00;77.02
9538;BME280;4807;48.024;11.726;2023-01-26T14:21:49;95028.56;;;-0.03;76.65
9538;BME280;4807;48.024;11.726;2023-01-26T14:24:59;95028.13;;;0.02;77.72
9538;BME280;4807;48.024;11.726;2023-01-26T14:28:14;95027.03;;;-0.05;77.29
9538;BME280;4807;48.024;11.726;2023-01-26T14:31:24;95028.69;;;-0.04;77.39
9538;BME280;4807;48.024;11.726;2023-01-26T14:34:33;95028.41;;;-0.01;76.47
9538;BME280;4807;48.024;11.726;2023-01-26T14:37:41;95031.44;;;0.04;77.46
9538;BME280;4807;48.024;11.726;2023-01-26T14:40:54;95020.94;;;-0.06;76.82
9538;BME280;4807;48.024;11.726;2023-01-26T14:44:03;95024.78;;;-0.19;76.93
9538;BME280;4807;48.024;11.726;2023-01-26T14:47:19;95024.09;;;-0.21;76.86
9538;BME280;4807;48.024;11.726;2023-01-26T14:50:29;95026.13;;;-0.34;76.72
9538;BME280;4807;48.024;11.726;2023-01-26T14:53:38;95014.53;;;-0.42;77.95
9538;BME280;4807;48.024;11.726;2023-01-26T14:56:48;95014.28;;;-0.29;77.42
9538;BME280;4807;48.024;11.726;2023-01-26T14:59:59;95007.13;;;-0.36;77.61
9538;BME280;4807;48.024;11.726;2023-01-26T15:03:21;95018.56;;;-0.28;77.87
9538;BME280;4807;48.024;11.726;2023-01-26T15:06:31;95017.63;;;-0.27;77.05
9538;BME280;4807;48.024;11.726;2023-01-26T15:09:39;95014.72;;;-0.24;77.32
9538;BME280;4807;48.024;11.726;2023-01-26T15:12:58;95017.63;;;-0.27;77.07
9538;BME280;4807;48.024;11.726;2023-01-26T15:16:16;95024.22;;;-0.23;76.80
9538;BME280;4807;48.024;11.726;2023-01-26T15:19:29;95027.50;;;-0.30;77.18
9538;BME280;4807;48.024;11.726;2023-01-26T15:22:37;95016.78;;;-0.27;77.28
9538;BME280;4807;48.024;11.726;2023-01-26T15:25:46;95017.16;;;-0.42;78.17
9538;BME280;4807;48.024;11.726;2023-01-26T15:28:59;95020.56;;;-0.51;77.32
9538;BME280;4807;48.024;11.726;2023-01-26T15:32:27;95012.44;;;-0.57;78.47
9538;BME280;4807;48.024;11.726;2023-01-26T15:35:36;95017.66;;;-0.48;78.40
9538;BME280;4807;48.024;11.726;2023-01-26T15:38:44;95020.16;;;-0.46;78.54
9538;BME280;4807;48.024;11.726;2023-01-26T15:42:13;95027.75;;;-0.43;78.38
9538;BME280;4807;48.024;11.726;2023-01-26T15:45:25;95024.72;;;-0.39;78.17
9538;BME280;4807;48.024;11.726;2023-01-26T15:48:35;95020.31;;;-0.38;78.68
9538;BME280;4807;48.024;11.726;2023-01-26T15:51:44;95027.91;;;-0.35;77.87
9538;BME280;4807;48.024;11.726;2023-01-26T15:54:52;95033.81;;;-0.43;77.60
9538;BME280;4807;48.024;11.726;2023-01-26T15:58:00;95032.69;;;-0.40;78.59
9538;BME280;4807;48.024;11.726;2023-01-26T16:01:19;95030.06;;;-0.40;78.21
9538;BME280;4807;48.024;11.726;2023-01-26T16:04:27;95039.03;;;-0.43;77.29
9538;BME280;4807;48.024;11.726;2023-01-26T16:07:35;95034.63;;;-0.72;78.35
9538;BME280;4807;48.024;11.726;2023-01-26T16:10:45;95034.31;;;-0.79;78.77
9538;BME280;4807;48.024;11.726;2023-01-26T16:13:53;95031.22;;;-0.73;80.04
9538;BME280;4807;48.024;11.726;2023-01-26T16:17:15;95031.38;;;-0.65;79.88
9538;BME280;4807;48.024;11.726;2023-01-26T16:20:24;95039.56;;;-0.49;79.08
9538;BME280;4807;48.024;11.726;2023-01-26T16:23:32;95043.81;;;-0.48;78.02
9538;BME280;4807;48.024;11.726;2023-01-26T16:26:40;95033.47;;;-0.59;78.85
9538;BME280;4807;48.024;11.726;2023-01-26T16:29:48;95039.28;;;-0.46;79.38
9538;BME280;4807;48.024;11.726;2023-01-26T16:32:58;95031.50;;;-0.66;78.51
9538;BME280;4807;48.024;11.726;2023-01-26T16:36:09;95039.66;;;-0.90;80.07
9538;BME280;4807;48.024;11.726;2023-01-26T16:39:18;95035.81;;;-0.86;81.29
9538;BME280;4807;48.024;11.726;2023-01-26T16:42:27;95034.44;;;-0.81;81.93
9538;BME280;4807;48.024;11.726;2023-01-26T16:45:35;95044.09;;;-0.81;80.88
9538;BME280;4807;48.024;11.726;2023-01-26T16:48:45;95040.13;;;-0.75;81.43
9538;BME280;4807;48.024;11.726;2023-01-26T16:51:53;95037.13;;;-0.71;79.11
9538;BME280;4807;48.024;11.726;2023-01-26T16:55:01;95032.13;;;-0.84;79.92
9538;BME280;4807;48.024;11.726;2023-01-26T16:58:10;95039.38;;;-0.87;79.82
9538;BME280;4807;48.024;11.726;2023-01-26T17:01:20;95040.84;;;-0.94;80.41
9538;BME280;4807;48.024;11.726;2023-01-26T17:04:31;95044.50;;;-1.06;80.98
9538;BME280;4807;48.024;11.726;2023-01-26T17:07:41;95041.44;;;-1.11;81.66
9538;BME280;4807;48.024;11.726;2023-01-26T17:10:50;95042.13;;;-1.09;81.25
9538;BME280;4807;48.024;11.726;2023-01-26T17:14:10;95043.03;;;-0.99;81.17
9538;BME280;4807;48.024;11.726;2023-01-26T17:17:19;95045.47;;;-1.07;80.49
9538;BME280;4807;48.024;11.726;2023-01-26T17:20:29;95048.84;;;-1.17;80.87
9538;BME280;4807;48.024;11.726;2023-01-26T17:23:37;95054.56;;;-1.23;80.81